createdAt,value
2022-11-05T00:00:37.578Z,10.85
2022-11-05T00:03:05.482Z,10.82
2022-11-05T00:05:33.129Z,10.80
2022-11-05T00:08:02.981Z,10.76
2022-11-05T00:10:32.283Z,10.77
2022-11-05T00:13:01.567Z,10.76
2022-11-05T00:15:29.799Z,10.81
2022-11-05T00:17:57.502Z,10.85
2022-11-05T00:20:25.057Z,10.86
2022-11-05T00:23:00.479Z,10.89
2022-11-05T00:25:28.448Z,10.91
2022-11-05T00:28:02.407Z,10.95
2022-11-05T00:30:31.016Z,10.94
2022-11-05T00:33:01.867Z,10.97
2022-11-05T00:35:29.872Z,10.93
2022-11-05T00:37:57.701Z,11.01
2022-11-05T00:40:26.118Z,11.02
2022-11-05T00:42:53.973Z,11.03
2022-11-05T00:45:22.947Z,11.05
2022-11-05T00:47:50.739Z,11.05
2022-11-05T00:50:20.552Z,11.05
2022-11-05T00:52:50.533Z,11.08
2022-11-05T00:55:18.129Z,11.10
2022-11-05T00:57:45.998Z,11.11
2022-11-05T01:00:14.814Z,11.11
2022-11-05T01:02:44.291Z,11.10
2022-11-05T01:05:13.553Z,11.11
2022-11-05T01:07:41.143Z,11.15
2022-11-05T01:10:09.461Z,11.16
2022-11-05T01:12:38.043Z,11.16
2022-11-05T01:15:08.911Z,11.20
2022-11-05T01:17:36.917Z,11.20
2022-11-05T01:20:06.754Z,11.23
2022-11-05T01:22:34.612Z,11.22
2022-11-05T01:25:02.991Z,11.23
2022-11-05T01:27:31.008Z,11.23
2022-11-05T01:29:58.565Z,11.24
2022-11-05T01:32:26.146Z,11.24
2022-11-05T01:34:54.383Z,11.24
2022-11-05T01:37:23.650Z,11.25
2022-11-05T01:39:51.233Z,11.27
2022-11-05T01:42:21.627Z,11.27
2022-11-05T01:45:01.401Z,11.29
2022-11-05T01:47:39.151Z,11.29
2022-11-05T01:50:23.949Z,11.27
2022-11-05T01:52:59.369Z,11.28
2022-11-05T01:55:31.502Z,11.26
2022-11-05T01:58:00.780Z,11.24
2022-11-05T02:00:28.323Z,11.23
2022-11-05T02:02:56.799Z,11.23
2022-11-05T02:05:24.818Z,11.22
2022-11-05T02:07:55.267Z,11.21
2022-11-05T02:10:23.798Z,11.16
2022-11-05T02:12:51.998Z,11.17
2022-11-05T02:15:27.538Z,11.15
2022-11-05T02:18:06.510Z,11.17
2022-11-05T02:20:41.647Z,11.15
2022-11-05T02:23:48.151Z,11.10
2022-11-05T02:26:57.426Z,11.06
2022-11-05T02:29:54.067Z,11.00
2022-11-05T02:32:35.339Z,10.97
2022-11-05T02:35:15.893Z,10.91
2022-11-05T02:37:50.835Z,10.84
2022-11-05T02:40:27.633Z,10.80
2022-11-05T02:43:02.405Z,10.73
2022-11-05T02:45:40.790Z,10.68
2022-11-05T02:48:20.736Z,10.63
2022-11-05T02:50:56.056Z,10.61
2022-11-05T02:53:31.360Z,10.60
2022-11-05T02:56:04.612Z,10.58
2022-11-05T02:58:34.127Z,10.55
2022-11-05T03:01:02.364Z,10.51
2022-11-05T03:03:36.254Z,10.52
2022-11-05T03:06:36.205Z,10.50
2022-11-05T03:09:18.172Z,10.52
2022-11-05T03:11:56.114Z,10.50
2022-11-05T03:14:34.293Z,10.51
2022-11-05T03:17:10.540Z,10.51
2022-11-05T03:19:48.312Z,10.49
2022-11-05T03:22:21.641Z,10.44
2022-11-05T03:24:55.476Z,10.49
2022-11-05T03:27:27.843Z,10.50
2022-11-05T03:30:02.046Z,10.51
2022-11-05T03:32:32.910Z,10.51
2022-11-05T03:35:07.362Z,10.51
2022-11-05T03:37:39.754Z,10.55
2022-11-05T03:40:10.632Z,10.55
2022-11-05T03:42:43.631Z,10.61
2022-11-05T03:45:17.558Z,10.62
2022-11-05T03:47:49.932Z,10.60
2022-11-05T03:50:24.113Z,10.60
2022-11-05T03:52:54.919Z,10.59
2022-11-05T03:55:26.399Z,10.59
2022-11-05T03:57:55.653Z,10.55
2022-11-05T04:00:23.522Z,10.56
2022-11-05T04:02:51.366Z,10.52
2022-11-05T04:05:21.159Z,10.52
2022-11-05T04:07:48.801Z,10.50
2022-11-05T04:10:18.875Z,10.48
2022-11-05T04:12:46.556Z,10.46
2022-11-05T04:15:15.248Z,10.44
2022-11-05T04:17:43.777Z,10.42
2022-11-05T04:20:11.706Z,10.40
2022-11-05T04:22:41.283Z,10.38
2022-11-05T04:25:09.398Z,10.38
2022-11-05T04:27:37.985Z,10.37
2022-11-05T04:30:06.704Z,10.34
2022-11-05T04:32:34.486Z,10.34
2022-11-05T04:35:02.155Z,10.29
2022-11-05T04:37:32.938Z,10.28
2022-11-05T04:40:02.265Z,10.26
2022-11-05T04:42:29.920Z,10.23
2022-11-05T04:44:57.585Z,10.21
2022-11-05T04:47:25.347Z,10.17
2022-11-05T04:49:53.024Z,10.16
2022-11-05T04:52:20.689Z,10.12
2022-11-05T04:54:48.369Z,10.10
2022-11-05T04:57:17.726Z,10.09
2022-11-05T04:59:48.282Z,10.10
2022-11-05T05:02:16.016Z,10.11
2022-11-05T05:04:43.887Z,10.09
2022-11-05T05:07:11.626Z,10.09
2022-11-05T05:09:42.186Z,10.10
2022-11-05T05:12:10.911Z,10.09
2022-11-05T05:14:39.956Z,10.06
2022-11-05T05:17:07.902Z,10.05
2022-11-05T05:19:35.497Z,10.08
2022-11-05T05:22:03.178Z,10.11
2022-11-05T05:24:30.970Z,10.14
2022-11-05T05:26:58.544Z,10.18
2022-11-05T05:29:27.103Z,10.23
2022-11-05T05:31:56.380Z,10.32
2022-11-05T05:34:24.037Z,10.42
2022-11-05T05:36:51.598Z,10.52
2022-11-05T05:39:19.387Z,10.66
2022-11-05T05:41:47.116Z,10.81
2022-11-05T05:44:15.013Z,10.99
2022-11-05T05:46:42.707Z,11.16
2022-11-05T05:49:12.576Z,11.31
2022-11-05T05:51:40.726Z,11.41
2022-11-05T05:54:08.740Z,11.55
2022-11-05T05:56:36.404Z,11.68
2022-11-05T05:59:05.781Z,11.75
2022-11-05T06:01:33.692Z,11.85
2022-11-05T06:04:01.338Z,11.94
2022-11-05T06:06:31.019Z,12.04
2022-11-05T06:08:58.754Z,12.14
2022-11-05T06:11:26.377Z,12.25
2022-11-05T06:13:54.042Z,12.36
2022-11-05T06:16:21.954Z,12.44
2022-11-05T06:18:50.669Z,12.52
2022-11-05T06:21:18.386Z,12.58
2022-11-05T06:23:47.648Z,12.63
2022-11-05T06:26:17.560Z,12.66
2022-11-05T06:28:46.562Z,12.70
2022-11-05T06:31:15.264Z,12.73
2022-11-05T06:33:43.257Z,12.73
2022-11-05T06:36:15.471Z,12.76
2022-11-05T06:38:44.060Z,12.82
2022-11-05T06:41:13.339Z,12.86
2022-11-05T06:43:43.033Z,12.85
2022-11-05T06:46:11.652Z,12.84
2022-11-05T06:48:41.776Z,12.82
2022-11-05T06:51:10.608Z,12.82
2022-11-05T06:53:38.529Z,12.86
2022-11-05T06:56:07.874Z,12.87
2022-11-05T06:58:37.191Z,12.88
2022-11-05T07:01:07.195Z,12.93
2022-11-05T07:03:36.311Z,12.95
2022-11-05T07:06:06.401Z,12.97
2022-11-05T07:08:35.400Z,12.98
2022-11-05T07:11:03.699Z,13.00
2022-11-05T07:13:31.828Z,13.06
2022-11-05T07:16:03.279Z,13.08
2022-11-05T07:18:31.296Z,13.12
2022-11-05T07:21:00.217Z,13.22
2022-11-05T07:23:28.232Z,13.23
2022-11-05T07:25:55.873Z,13.25
2022-11-05T07:28:23.713Z,13.32
2022-11-05T07:30:51.476Z,13.31
2022-11-05T07:33:20.625Z,13.39
2022-11-05T07:35:48.435Z,13.40
2022-11-05T07:38:16.030Z,13.39
2022-11-05T07:40:43.944Z,13.39
2022-11-05T07:43:11.970Z,13.49
2022-11-05T07:45:40.351Z,13.51
2022-11-05T07:48:08.329Z,13.56
2022-11-05T07:50:38.200Z,13.54
2022-11-05T07:53:09.504Z,13.53
2022-11-05T07:55:38.020Z,13.51
2022-11-05T07:58:05.898Z,13.52
2022-11-05T08:00:34.126Z,13.55
2022-11-05T08:03:08.179Z,13.60
2022-11-05T08:05:40.663Z,13.65
2022-11-05T08:08:10.288Z,13.65
2022-11-05T08:10:38.766Z,13.60
2022-11-05T08:13:08.864Z,13.62
2022-11-05T08:15:37.424Z,13.55
2022-11-05T08:18:06.995Z,13.54
2022-11-05T08:20:37.567Z,13.56
2022-11-05T08:23:05.729Z,13.57
2022-11-05T08:25:33.824Z,13.50
2022-11-05T08:28:03.966Z,13.55
2022-11-05T08:30:32.045Z,13.57
2022-11-05T08:33:02.625Z,13.61
2022-11-05T08:35:30.680Z,13.66
2022-11-05T08:38:02.039Z,13.66
2022-11-05T08:40:32.016Z,13.67
2022-11-05T08:43:01.392Z,13.60
2022-11-05T08:45:29.867Z,13.57
2022-11-05T08:48:01.488Z,13.54
2022-11-05T08:50:29.783Z,13.54
2022-11-05T08:52:59.327Z,13.54
2022-11-05T08:55:27.765Z,13.52
2022-11-05T08:57:55.857Z,13.55
2022-11-05T09:00:24.595Z,13.56
2022-11-05T09:02:52.868Z,13.53
2022-11-05T09:05:20.551Z,13.56
2022-11-05T09:07:49.096Z,13.55
2022-11-05T09:10:18.693Z,13.56
2022-11-05T09:12:46.952Z,13.57
2022-11-05T09:15:15.933Z,13.61
2022-11-05T09:17:43.670Z,13.66
2022-11-05T09:20:12.172Z,13.70
2022-11-05T09:22:43.268Z,13.77
2022-11-05T09:25:11.824Z,13.73
2022-11-05T09:27:41.271Z,13.68
2022-11-05T09:30:10.829Z,13.72
2022-11-05T09:32:38.985Z,13.80
2022-11-05T09:35:07.835Z,13.88
2022-11-05T09:37:36.360Z,13.97
2022-11-05T09:40:05.411Z,13.98
2022-11-05T09:42:38.004Z,14.02
2022-11-05T09:45:10.915Z,13.99
2022-11-05T09:47:42.701Z,13.93
2022-11-05T09:50:17.489Z,13.97
2022-11-05T09:52:46.254Z,13.86
2022-11-05T09:55:20.113Z,13.92
2022-11-05T09:57:54.655Z,13.97
2022-11-05T10:00:25.155Z,13.98
2022-11-05T10:02:55.680Z,14.05
2022-11-05T10:05:28.086Z,13.98
2022-11-05T10:07:59.381Z,13.99
2022-11-05T10:10:40.587Z,14.00
2022-11-05T10:13:19.443Z,13.87
2022-11-05T10:15:59.179Z,13.91
2022-11-05T10:18:32.706Z,13.93
2022-11-05T10:21:01.974Z,13.88
2022-11-05T10:23:30.234Z,13.83
2022-11-05T10:26:04.194Z,13.76
2022-11-05T10:28:33.946Z,13.75
2022-11-05T10:31:06.529Z,13.78
2022-11-05T10:33:41.330Z,13.77
2022-11-05T10:36:12.569Z,13.83
2022-11-05T10:38:40.458Z,13.85
2022-11-05T10:41:39.486Z,13.86
2022-11-05T10:44:19.215Z,13.85
2022-11-05T10:46:58.096Z,13.79
2022-11-05T10:49:40.834Z,13.85
2022-11-05T10:52:22.931Z,13.86
2022-11-05T10:54:52.619Z,13.83
2022-11-05T10:57:32.545Z,13.89
2022-11-05T11:00:25.888Z,13.91
2022-11-05T11:02:58.554Z,13.88
2022-11-05T11:05:30.609Z,13.81
2022-11-05T11:08:02.311Z,13.84
2022-11-05T11:10:34.213Z,13.94
2022-11-05T11:13:02.759Z,13.88
2022-11-05T11:15:31.545Z,13.87
2022-11-05T11:18:25.398Z,13.91
2022-11-05T11:20:53.354Z,13.87
2022-11-05T11:23:20.956Z,13.87
2022-11-05T11:25:53.249Z,13.82
2022-11-05T11:28:23.623Z,13.77
2022-11-05T11:31:04.763Z,13.72
2022-11-05T11:33:35.312Z,13.68
2022-11-05T11:36:04.059Z,13.64
2022-11-05T11:38:34.452Z,13.59
2022-11-05T11:41:13.831Z,13.55
2022-11-05T11:43:42.609Z,13.54
2022-11-05T11:46:15.258Z,13.53
2022-11-05T11:48:45.889Z,13.40
2022-11-05T11:51:20.305Z,13.39
2022-11-05T11:53:49.686Z,13.35
2022-11-05T11:56:18.991Z,13.26
2022-11-05T11:58:50.816Z,13.25
2022-11-05T12:01:42.973Z,13.13
2022-11-05T12:04:22.104Z,13.01
2022-11-05T12:07:02.761Z,12.97
2022-11-05T12:09:37.881Z,12.97
2022-11-05T12:12:11.380Z,12.93
2022-11-05T12:14:54.719Z,12.91
2022-11-05T12:52:01.339Z,12.11
2022-11-05T12:57:32.314Z,12.09
2022-11-05T13:00:06.117Z,12.01
2022-11-05T13:02:40.800Z,12.05
2022-11-05T13:05:16.352Z,12.03
2022-11-05T13:07:54.427Z,12.03
2022-11-05T13:10:28.633Z,12.03
2022-11-05T13:13:04.903Z,12.06
2022-11-05T13:15:38.997Z,12.06
2022-11-05T13:18:13.601Z,12.02
2022-11-05T13:20:46.416Z,12.00
2022-11-05T13:23:21.017Z,12.00
2022-11-05T13:28:38.667Z,11.97
2022-11-05T13:34:19.954Z,11.94
2022-11-05T13:36:53.363Z,11.89
2022-11-05T13:39:26.517Z,11.94
2022-11-05T13:42:12.253Z,11.93
2022-11-05T13:45:13.721Z,11.94
2022-11-05T13:48:05.712Z,11.93
2022-11-05T13:50:56.606Z,11.89
2022-11-05T13:53:41.574Z,11.93
2022-11-05T13:56:29.303Z,11.88
2022-11-05T13:59:16.021Z,11.92
2022-11-05T14:01:48.627Z,11.91
2022-11-05T14:04:28.428Z,11.92
2022-11-05T14:07:07.035Z,11.84
2022-11-05T14:12:20.863Z,11.85
2022-11-05T14:14:57.488Z,11.83
2022-11-05T14:17:32.618Z,11.82
2022-11-05T14:20:30.786Z,11.81
2022-11-05T14:23:37.403Z,11.79
2022-11-05T14:26:17.899Z,11.78
2022-11-05T14:29:21.423Z,11.77
2022-11-05T14:32:09.991Z,11.76
2022-11-05T14:34:55.152Z,11.76
2022-11-05T14:37:32.390Z,11.74
2022-11-05T14:40:32.559Z,11.73
2022-11-05T14:43:03.232Z,11.72
2022-11-05T14:45:36.559Z,11.73
2022-11-05T15:22:25.425Z,11.74
2022-11-05T15:25:18.328Z,11.53
2022-11-05T15:28:05.839Z,11.51
2022-11-05T15:30:33.848Z,11.72
2022-11-05T15:33:20.512Z,11.44
2022-11-05T18:35:09.834Z,11.10
2022-11-05T18:37:38.084Z,11.11
2022-11-05T18:40:07.256Z,11.10
2022-11-05T18:42:35.124Z,11.06
2022-11-05T18:45:03.671Z,11.08
2022-11-05T18:47:31.718Z,11.09
2022-11-05T18:49:59.782Z,11.11
2022-11-05T18:52:28.933Z,11.11
2022-11-05T18:54:56.498Z,11.07
2022-11-05T18:57:24.269Z,11.07
2022-11-05T18:59:52.059Z,11.07
2022-11-05T19:02:19.801Z,11.07
2022-11-05T19:05:14.068Z,11.08
2022-11-05T19:07:39.104Z,11.08
2022-11-05T19:10:09.166Z,11.07
2022-11-05T19:12:37.586Z,11.10
2022-11-05T19:15:06.015Z,11.10
2022-11-05T19:17:37.794Z,11.10
2022-11-05T19:20:07.295Z,11.09
2022-11-05T19:22:35.450Z,11.03
2022-11-05T19:25:05.537Z,11.09
2022-11-05T19:27:35.630Z,11.01
2022-11-05T19:30:03.867Z,11.02
2022-11-05T19:32:31.911Z,11.02
2022-11-05T19:34:59.569Z,11.01
2022-11-05T19:37:27.188Z,10.99
2022-11-05T19:39:54.883Z,11.02
2022-11-05T19:42:26.715Z,11.05
2022-11-05T19:44:54.423Z,11.03
2022-11-05T19:47:22.278Z,11.02
2022-11-05T19:49:49.912Z,11.03
2022-11-05T19:52:18.413Z,11.02
2022-11-05T19:54:46.028Z,10.99
2022-11-05T19:57:14.260Z,11.01
2022-11-05T19:59:43.545Z,11.04
2022-11-05T20:02:16.081Z,11.02
2022-11-05T20:04:44.790Z,11.00
2022-11-05T20:07:12.494Z,11.01
2022-11-05T20:09:40.273Z,10.99
2022-11-05T20:12:10.041Z,10.98
2022-11-05T20:14:37.949Z,10.97
2022-11-05T20:17:07.262Z,10.95
2022-11-05T20:19:35.128Z,10.93
2022-11-05T20:22:03.616Z,10.91
2022-11-05T20:24:31.678Z,10.88
2022-11-05T20:26:59.524Z,10.86
2022-11-05T20:29:33.816Z,10.85
2022-11-05T20:32:03.794Z,10.76
2022-11-05T20:34:34.908Z,10.80
2022-11-05T20:37:02.535Z,10.76
2022-11-05T20:39:30.744Z,10.77
2022-11-05T20:41:59.986Z,10.73
2022-11-05T20:44:27.970Z,10.72
2022-11-05T20:46:57.779Z,10.72
2022-11-05T20:49:25.987Z,10.67
2022-11-05T20:51:55.250Z,10.61
2022-11-05T20:54:23.686Z,10.62
2022-11-05T20:56:51.310Z,10.57
2022-11-05T20:59:19.241Z,10.54
2022-11-05T21:01:47.513Z,10.50
2022-11-05T21:04:15.462Z,10.50
2022-11-05T21:06:43.180Z,10.50
2022-11-05T21:09:12.840Z,10.42
2022-11-05T21:11:41.532Z,10.36
2022-11-05T21:14:09.913Z,10.48
2022-11-05T21:16:37.681Z,10.47
2022-11-05T21:19:05.434Z,10.49
2022-11-05T21:21:37.379Z,10.48
2022-11-05T21:24:08.405Z,10.45
2022-11-05T21:26:37.856Z,10.46
2022-11-05T21:29:05.835Z,10.43
2022-11-05T21:31:36.248Z,10.41
2022-11-05T21:34:04.300Z,10.38
2022-11-05T21:36:33.591Z,10.41
2022-11-05T21:39:01.608Z,10.40
2022-11-05T21:41:30.258Z,10.36
2022-11-05T21:43:59.293Z,10.34
2022-11-05T21:46:27.041Z,10.28
2022-11-05T21:48:55.203Z,10.31
2022-11-05T21:51:23.097Z,10.27
2022-11-05T21:53:50.785Z,10.28
2022-11-05T21:56:21.177Z,10.32
2022-11-05T21:58:48.830Z,10.30
2022-11-05T22:01:18.197Z,10.31
2022-11-05T22:03:45.973Z,10.30
2022-11-05T22:06:14.109Z,10.28
2022-11-05T22:08:41.882Z,10.31
2022-11-05T22:11:09.478Z,10.31
2022-11-05T22:13:37.297Z,10.23
2022-11-05T22:16:06.308Z,10.32
2022-11-05T22:18:35.657Z,10.33
2022-11-05T22:21:04.386Z,10.29
2022-11-05T22:23:32.360Z,10.25
2022-11-05T22:26:02.382Z,10.21
2022-11-05T22:28:30.276Z,10.22
2022-11-05T22:30:59.154Z,10.28
2022-11-05T22:33:27.022Z,10.31
2022-11-05T22:35:56.063Z,10.29
2022-11-05T22:38:23.727Z,10.34
2022-11-05T22:40:52.762Z,10.33
2022-11-05T22:43:20.744Z,10.34
2022-11-05T22:45:48.527Z,10.28
2022-11-05T22:48:16.337Z,10.24
2022-11-05T22:50:44.044Z,10.34
2022-11-05T22:53:13.264Z,10.38
2022-11-05T22:55:41.551Z,10.41
2022-11-05T22:58:09.160Z,10.36
2022-11-05T23:00:38.196Z,10.36
2022-11-05T23:03:06.078Z,10.31
2022-11-05T23:05:35.308Z,10.29
2022-11-05T23:08:03.400Z,10.27
2022-11-05T23:10:32.775Z,10.25
2022-11-05T23:13:00.377Z,10.28
2022-11-05T23:15:28.004Z,10.23
2022-11-05T23:17:55.757Z,10.19
2022-11-05T23:20:23.851Z,10.24
2022-11-05T23:22:52.278Z,10.23
2022-11-05T23:25:21.639Z,10.19
2022-11-05T23:27:54.720Z,10.19
2022-11-05T23:30:23.900Z,10.24
2022-11-05T23:32:52.843Z,10.21
2022-11-05T23:35:22.295Z,10.22
2022-11-05T23:37:50.005Z,10.21
2022-11-05T23:40:20.811Z,10.17
2022-11-05T23:42:51.038Z,10.23
2022-11-05T23:45:19.143Z,10.22
2022-11-05T23:47:47.653Z,10.21
2022-11-05T23:50:15.543Z,10.19
2022-11-05T23:52:43.112Z,10.16
2022-11-05T23:55:10.755Z,10.15
2022-11-05T23:57:38.608Z,10.10
